Time;durP1;ratioP1;P1;durP2;ratioP2;P2;SDS_P1;SDS_P2;PMS_P1;PMS_P2;Temp;Humidity;BMP_temperature;BMP_pressure;BME280_temperature;BME280_humidity;BME280_pressure;Samples;Min_cycle;Max_cycle;Signal;HPM_P1;HPM_P2
2023/03/23 00:00:19;;;;;;;5.18;4.78;;;;;;;5.60;100.00;62574.84;5007586;28;20246;-72
2023/03/23 00:02:45;;;;;;;4.68;4.28;;;;;;;5.60;100.00;62576.84;5018237;28;20437;-73
2023/03/23 00:05:13;;;;;;;3.95;3.60;;;;;;;5.63;100.00;62574.88;5028698;28;20275;-73
2023/03/23 00:07:45;;;;;;;5.13;4.63;;;;;;;5.51;100.00;62560.53;5026137;28;20245;-73
2023/03/23 00:10:12;;;;;;;6.07;5.47;;;;;;;5.49;100.00;62565.50;5026377;28;20214;-73
2023/03/23 00:12:41;;;;;;;10.70;6.75;;;;;;;5.46;100.00;62557.38;5008171;28;20398;-72
2023/03/23 00:15:16;;;;;;;6.28;5.32;;;;;;;5.52;100.00;62571.16;5007283;28;20210;-73
2023/03/23 00:17:44;;;;;;;10.60;6.97;;;;;;;5.49;100.00;62565.50;5006876;28;20226;-74
2023/03/23 00:20:12;;;;;;;11.65;7.88;;;;;;;5.47;100.00;62558.41;5009360;28;20207;-73
2023/03/23 00:22:40;;;;;;;14.30;10.40;;;;;;;5.47;100.00;62558.41;5022006;28;20246;-72
2023/03/23 00:25:09;;;;;;;14.77;10.43;;;;;;;5.48;100.00;62562.47;5026722;28;20199;-72
2023/03/23 00:27:36;;;;;;;19.90;13.27;;;;;;;5.49;100.00;62563.50;5027403;28;20223;-73
2023/03/23 00:30:05;;;;;;;21.85;13.60;;;;;;;5.52;100.00;62566.59;5020508;28;20488;-73
2023/03/23 00:32:32;;;;;;;16.05;11.63;;;;;;;5.51;100.00;62567.56;5010391;28;20245;-73
2023/03/23 00:34:59;;;;;;;12.93;10.65;;;;;;;5.51;100.00;62570.63;5035207;28;20222;-72
2023/03/23 00:37:26;;;;;;;16.90;10.88;;;;;;;5.55;100.00;62569.19;5026917;28;20394;-72
2023/03/23 00:39:57;;;;;;;10.98;9.45;;;;;;;5.57;100.00;62569.22;5023699;28;20205;-72
2023/03/23 00:42:24;;;;;;;18.88;11.35;;;;;;;5.59;100.00;62576.34;5031278;28;20525;-73
2023/03/23 00:44:53;;;;;;;14.43;11.18;;;;;;;5.69;100.00;62583.59;5046771;28;20499;-73
2023/03/23 00:47:22;;;;;;;13.68;9.95;;;;;;;5.71;100.00;62588.69;5037425;28;20225;-74
2023/03/23 00:49:52;;;;;;;14.07;10.13;;;;;;;5.81;100.00;62598.50;5026687;28;20206;-74
2023/03/23 00:52:19;;;;;;;15.10;10.05;;;;;;;5.87;100.00;62599.63;5025690;28;20242;-72
2023/03/23 00:54:46;;;;;;;14.57;11.02;;;;;;;6.00;100.00;62617.56;5025585;28;20206;-71
2023/03/23 00:57:12;;;;;;;14.30;10.23;;;;;;;6.05;100.00;62617.69;5023941;28;20507;-70
2023/03/23 00:59:40;;;;;;;10.52;8.18;;;;;;;6.13;100.00;62628.44;5025979;28;20195;-71
2023/03/23 01:02:06;;;;;;;10.60;8.45;;;;;;;6.24;100.00;62644.84;5025493;28;20241;-71
2023/03/23 01:04:36;;;;;;;14.57;8.18;;;;;;;6.25;100.00;62641.34;5025514;28;20458;-71
2023/03/23 01:07:04;;;;;;;9.43;6.70;;;;;;;6.24;100.00;62642.84;5008178;28;20279;-72
2023/03/23 01:09:31;;;;;;;10.18;7.90;;;;;;;6.33;100.00;62646.53;5006930;28;20203;-72
2023/03/23 01:11:58;;;;;;;13.98;8.30;;;;;;;6.31;100.00;62647.00;5005501;28;20234;-72
2023/03/23 01:14:26;;;;;;;16.98;11.90;;;;;;;6.35;100.00;62654.16;5009701;28;20217;-72
2023/03/23 01:16:53;;;;;;;20.15;13.38;;;;;;;6.45;100.00;62661.44;5026370;28;20224;-72
2023/03/23 01:19:20;;;;;;;21.88;13.27;;;;;;;6.43;100.00;62657.38;5025141;28;20214;-71
2023/03/23 01:21:48;;;;;;;20.85;13.43;;;;;;;6.38;100.00;62654.75;5025321;28;20219;-74
2023/03/23 01:24:16;;;;;;;19.15;13.35;;;;;;;6.44;100.00;62662.94;5021869;28;20210;-72
2023/03/23 01:26:43;;;;;;;17.00;12.45;;;;;;;6.48;100.00;62662.00;5025717;28;20563;-73
2023/03/23 01:29:10;;;;;;;17.95;12.23;;;;;;;6.50;100.00;62671.66;5026374;28;20201;-72
2023/03/23 01:31:37;;;;;;;17.52;12.13;;;;;;;6.52;100.00;62666.13;5025904;28;20273;-72
2023/03/23 01:34:05;;;;;;;22.35;14.70;;;;;;;6.61;100.00;62675.41;5023458;28;20257;-73
2023/03/23 01:36:33;;;;;;;21.88;14.90;;;;;;;6.67;100.00;62679.06;5024700;28;20230;-71
2023/03/23 01:39:03;;;;;;;26.98;16.80;;;;;;;6.82;100.00;62697.06;5025327;28;20219;-71
2023/03/23 01:41:32;;;;;;;25.70;16.70;;;;;;;6.88;100.00;62703.25;5024270;28;20563;-72
2023/03/23 01:44:03;;;;;;;20.83;14.82;;;;;;;6.93;100.00;62708.41;5025080;28;20206;-72
2023/03/23 01:46:31;;;;;;;23.73;15.57;;;;;;;6.94;100.00;62711.97;5025417;28;20554;-73
2023/03/23 01:49:06;;;;;;;14.93;12.00;;;;;;;6.89;100.00;62712.41;5026380;28;20199;-72
2023/03/23 01:51:36;;;;;;;15.07;9.65;;;;;;;6.85;100.00;62703.19;5021498;28;20249;-72
2023/03/23 01:54:07;;;;;;;19.58;10.68;;;;;;;6.86;100.00;62704.25;5024125;28;20237;-72
2023/03/23 01:56:40;;;;;;;10.63;9.52;;;;;;;6.79;100.00;62694.50;5025220;28;20226;-73
2023/03/23 01:59:08;;;;;;;10.18;8.38;;;;;;;6.74;100.00;62686.81;5023259;28;20223;-72
2023/03/23 02:01:38;;;;;;;16.75;8.27;;;;;;;6.67;100.00;62681.59;5023202;28;20238;-72
2023/03/23 02:04:07;;;;;;;11.23;8.27;;;;;;;6.60;100.00;62679.44;5026344;28;20209;-72
2023/03/23 02:06:34;;;;;;;10.18;8.10;;;;;;;6.51;100.00;62670.16;5025240;28;20218;-72
2023/03/23 02:09:06;;;;;;;9.73;8.73;;;;;;;6.50;100.00;62669.66;5019973;28;20206;-71
2023/03/23 02:11:33;;;;;;;12.50;9.55;;;;;;;6.44;100.00;62660.41;5024325;28;20225;-72
2023/03/23 02:14:01;;;;;;;9.27;8.20;;;;;;;6.38;100.00;62654.75;5025622;28;20240;-71
2023/03/23 02:16:35;;;;;;;10.50;8.15;;;;;;;6.39;100.00;62655.78;5024345;28;20218;-71
2023/03/23 02:19:26;;;;;;;13.40;8.20;;;;;;;6.40;100.00;62656.28;5022193;28;20305;-72
2023/03/23 02:22:25;;;;;;;11.50;9.30;;;;;;;6.33;100.00;62651.59;5027004;28;20260;-72
2023/03/23 02:25:24;;;;;;;10.27;8.63;;;;;;;6.31;100.00;62647.53;5023844;28;20295;-72
2023/03/23 02:28:30;;;;;;;16.25;10.63;;;;;;;6.31;100.00;62647.00;5021799;28;20222;-72
2023/03/23 02:31:16;;;;;;;14.48;9.75;;;;;;;6.38;100.00;62657.28;5004250;28;20456;-71
2023/03/23 02:33:51;;;;;;;13.90;9.85;;;;;;;6.44;100.00;62660.41;5004124;28;20257;-71
2023/03/23 02:36:25;;;;;;;11.50;9.48;;;;;;;6.40;100.00;62659.31;5010610;28;20418;-72
2023/03/23 02:38:59;;;;;;;17.27;10.52;;;;;;;6.42;100.00;62658.34;5034294;28;20259;-71
2023/03/23 02:41:31;;;;;;;13.50;9.75;;;;;;;6.43;100.00;62656.84;5047075;28;20446;-72
2023/03/23 02:44:00;;;;;;;12.75;9.30;;;;;;;6.43;100.00;62654.84;5043547;28;20201;-71
2023/03/23 02:46:28;;;;;;;15.20;9.38;;;;;;;6.44;100.00;62662.94;5025506;28;20244;-72
2023/03/23 02:48:58;;;;;;;18.90;10.30;;;;;;;6.42;100.00;62658.34;5025217;28;20206;-72
2023/03/23 02:51:27;;;;;;;14.45;9.55;;;;;;;6.42;100.00;62658.84;5023758;28;20281;-72
2023/03/23 02:53:57;;;;;;;10.82;8.55;;;;;;;6.41;100.00;62655.31;5021477;28;20253;-71
2023/03/23 02:56:26;;;;;;;15.52;8.45;;;;;;;6.42;100.00;62658.84;5024062;28;20219;-71
2023/03/23 02:58:53;;;;;;;10.27;7.75;;;;;;;6.44;100.00;62660.41;5027288;28;20234;-72
2023/03/23 03:02:01;;;;;;;10.15;7.93;;;;;;;6.44;100.00;62662.94;5024627;28;20241;-72
2023/03/23 03:04:33;;;;;;;12.30;8.40;;;;;;;6.48;100.00;62672.13;5021902;28;20249;-72
2023/03/23 03:07:25;;;;;;;8.95;7.03;;;;;;;6.57;100.00;62674.34;5025775;28;20449;-72
2023/03/23 03:09:57;;;;;;;9.50;7.72;;;;;;;6.67;100.00;62684.66;5023708;28;20206;-71
2023/03/23 03:12:33;;;;;;;10.02;7.82;;;;;;;6.66;100.00;62685.63;5023273;28;20267;-73
2023/03/23 03:15:23;;;;;;;12.65;8.07;;;;;;;6.72;100.00;62689.81;5024364;28;20266;-71
2023/03/23 03:17:56;;;;;;;8.20;7.18;;;;;;;6.79;100.00;62699.03;5023410;28;20225;-72
2023/03/23 03:20:27;;;;;;;10.57;7.82;;;;;;;6.83;100.00;62703.16;5024836;28;20275;-71
2023/03/23 03:22:56;;;;;;;9.60;7.55;;;;;;;6.81;100.00;62698.56;5021720;28;20230;-73
2023/03/23 03:25:25;;;;;;;12.15;8.52;;;;;;;6.65;100.00;62679.53;5022940;28;20211;-72
2023/03/23 03:27:53;;;;;;;16.25;10.57;;;;;;;6.61;100.00;62677.94;5023433;28;20246;-73
2023/03/23 03:30:26;;;;;;;11.95;9.55;;;;;;;6.54;100.00;62675.78;5025178;28;20203;-72
2023/03/23 03:32:54;;;;;;;14.45;9.75;;;;;;;6.53;100.00;62669.69;5024898;28;20234;-71
2023/03/23 03:35:22;;;;;;;15.68;9.38;;;;;;;6.54;100.00;62675.78;5023658;28;20275;-72
2023/03/23 03:37:52;;;;;;;12.27;9.20;;;;;;;6.51;100.00;62667.63;5023967;28;20225;-71
2023/03/23 03:40:21;;;;;;;8.90;7.15;;;;;;;6.55;100.00;62674.28;5020850;28;20199;-72
2023/03/23 03:42:48;;;;;;;9.27;6.88;;;;;;;6.54;100.00;62668.19;5022949;28;20289;-71
2023/03/23 03:45:18;;;;;;;9.50;6.72;;;;;;;6.50;100.00;62669.13;5023926;28;20195;-74
2023/03/23 03:47:45;;;;;;;8.55;7.20;;;;;;;6.50;100.00;62667.13;5025351;28;20218;-72
2023/03/23 03:50:13;;;;;;;8.27;6.95;;;;;;;6.52;100.00;62669.16;5027248;28;20190;-71
2023/03/23 03:52:40;;;;;;;8.57;6.88;;;;;;;6.54;100.00;62670.72;5028708;28;20229;-72
2023/03/23 03:55:10;;;;;;;7.78;6.63;;;;;;;6.50;100.00;62666.59;5026403;28;20199;-72
2023/03/23 03:57:38;;;;;;;7.88;6.50;;;;;;;6.48;100.00;62665.06;5024247;28;20230;-71
2023/03/23 04:00:14;;;;;;;8.15;6.35;;;;;;;6.48;100.00;62667.06;5030129;28;20199;-72
2023/03/23 04:02:51;;;;;;;8.57;6.38;;;;;;;6.49;100.00;62665.56;5029544;28;20422;-73
2023/03/23 04:05:20;;;;;;;8.20;6.50;;;;;;;6.48;100.00;62667.59;5026989;28;20238;-72
2023/03/23 04:07:49;;;;;;;8.60;5.78;;;;;;;6.46;100.00;62663.00;5020453;28;20245;-72
2023/03/23 04:10:19;;;;;;;7.60;6.07;;;;;;;6.45;100.00;62661.97;5032317;28;20198;-72
2023/03/23 04:12:46;;;;;;;7.60;6.45;;;;;;;6.39;100.00;62655.25;5026521;28;20269;-72
2023/03/23 04:15:13;;;;;;;7.95;6.80;;;;;;;6.34;100.00;62650.63;5027514;28;20214;-72
2023/03/23 04:17:42;;;;;;;8.65;6.80;;;;;;;6.27;100.00;62647.94;5027075;28;20235;-73
2023/03/23 04:20:15;;;;;;;8.40;6.03;;;;;;;6.24;100.00;62650.41;5026007;28;20203;-71
2023/03/23 04:22:43;;;;;;;11.45;6.35;;;;;;;6.22;100.00;62643.31;5016593;28;20227;-71
2023/03/23 04:25:12;;;;;;;10.18;7.10;;;;;;;6.20;100.00;62641.22;5018534;28;20374;-72
2023/03/23 04:27:43;;;;;;;10.68;6.75;;;;;;;6.15;100.00;62631.03;5026663;28;20222;-72
2023/03/23 04:30:12;;;;;;;8.27;7.10;;;;;;;6.15;100.00;62633.56;5027004;28;20203;-71
2023/03/23 04:32:41;;;;;;;9.93;7.00;;;;;;;6.19;100.00;62632.09;5021501;28;20701;-72
2023/03/23 04:35:10;;;;;;;11.13;8.10;;;;;;;6.25;100.00;62643.84;5026356;28;20380;-73
2023/03/23 04:37:39;;;;;;;10.85;7.90;;;;;;;6.36;100.00;62654.69;5029469;28;20210;-72
2023/03/23 04:40:10;;;;;;;9.23;7.30;;;;;;;6.38;100.00;62654.75;5024843;28;20237;-72
2023/03/23 04:42:38;;;;;;;8.65;7.32;;;;;;;6.51;100.00;62665.63;5023163;28;20237;-72
2023/03/23 04:45:09;;;;;;;11.52;7.75;;;;;;;6.52;100.00;62671.19;5025924;28;20464;-73
2023/03/23 04:47:40;;;;;;;11.10;7.45;;;;;;;6.56;100.00;62672.78;5006521;28;20524;-72
2023/03/23 04:50:09;;;;;;;9.93;7.50;;;;;;;6.62;100.00;62676.44;5021605;28;20226;-72
2023/03/23 04:52:37;;;;;;;8.63;6.85;;;;;;;6.73;100.00;62692.84;5028031;28;20210;-73
2023/03/23 04:55:06;;;;;;;9.02;6.95;;;;;;;6.75;100.00;62690.38;5024290;28;20457;-72
2023/03/23 04:57:33;;;;;;;9.40;7.50;;;;;;;6.90;100.00;62702.78;5027796;28;20219;-72
2023/03/23 05:00:00;;;;;;;10.45;7.50;;;;;;;7.00;100.00;62718.69;5025571;28;20282;-72
2023/03/23 05:02:30;;;;;;;9.15;7.03;;;;;;;7.11;100.00;62726.97;5024589;28;20286;-72
2023/03/23 05:04:57;;;;;;;9.10;7.65;;;;;;;7.16;100.00;62737.22;5025048;28;20546;-71
2023/03/23 05:07:24;;;;;;;10.25;7.68;;;;;;;7.29;100.00;62747.56;5017061;28;20281;-73
2023/03/23 05:09:51;;;;;;;8.77;7.43;;;;;;;7.39;100.00;62758.41;5027866;28;20211;-73
2023/03/23 05:12:18;;;;;;;9.10;7.03;;;;;;;7.44;100.00;62761.03;5024979;28;20245;-72
2023/03/23 05:14:45;;;;;;;6.38;5.80;;;;;;;7.43;100.00;62762.03;5025713;28;20268;-75
2023/03/23 05:17:16;;;;;;;9.93;7.82;;;;;;;7.23;100.00;62741.38;5022694;28;20226;-72
2023/03/23 05:19:47;;;;;;;10.38;8.10;;;;;;;7.33;100.00;62751.69;5026413;28;20241;-72
2023/03/23 05:22:14;;;;;;;11.25;8.43;;;;;;;7.39;100.00;62753.34;5027077;28;20554;-72
2023/03/23 05:24:42;;;;;;;10.65;8.68;;;;;;;7.51;100.00;62770.25;5021509;28;20207;-71
2023/03/23 05:27:09;;;;;;;11.77;9.30;;;;;;;7.61;100.00;62783.13;5027799;28;20242;-72
2023/03/23 05:29:37;;;;;;;13.32;9.35;;;;;;;7.60;100.00;62782.63;5033931;28;20201;-71
2023/03/23 05:32:05;;;;;;;17.70;9.25;;;;;;;7.71;100.00;62790.91;5025993;28;20223;-71
2023/03/23 05:34:33;;;;;;;19.00;11.25;;;;;;;7.82;100.00;62804.81;5028059;28;20240;-71
2023/03/23 05:37:02;;;;;;;18.63;11.70;;;;;;;7.61;100.00;62780.59;5024911;28;20226;-73
2023/03/23 05:39:30;;;;;;;17.17;12.02;;;;;;;7.61;100.00;62780.59;5024748;28;20510;-72
2023/03/23 05:41:58;;;;;;;16.38;11.18;;;;;;;7.78;100.00;62800.69;5027709;28;20218;-72
2023/03/23 05:44:26;;;;;;;17.58;11.32;;;;;;;7.77;100.00;62797.63;5021881;28;20225;-72
2023/03/23 05:46:54;;;;;;;18.20;11.27;;;;;;;7.80;100.00;62805.28;5024708;28;20219;-72
2023/03/23 05:49:21;;;;;;;16.27;12.27;;;;;;;7.48;100.00;62767.19;5041185;28;20202;-75
2023/03/23 05:51:49;;;;;;;28.63;17.80;;;;;;;7.33;100.00;62757.28;5041926;28;20217;-73
2023/03/23 05:54:18;;;;;;;40.97;24.15;;;;;;;7.11;100.00;62729.00;5022647;28;20230;-73
2023/03/23 05:56:44;;;;;;;51.30;29.88;;;;;;;6.96;100.00;62714.56;5026261;28;20221;-72
2023/03/23 05:59:11;;;;;;;51.83;29.25;;;;;;;7.15;100.00;62736.16;5033129;28;20194;-71
2023/03/23 06:01:39;;;;;;;49.90;30.13;;;;;;;7.07;100.00;62725.91;5030578;28;20241;-72
2023/03/23 06:04:05;;;;;;;48.45;31.50;;;;;;;7.10;100.00;62727.97;5022189;28;20203;-73
2023/03/23 06:06:32;;;;;;;46.53;29.58;;;;;;;7.42;100.00;62763.53;5023475;28;20226;-73
2023/03/23 06:09:00;;;;;;;49.60;30.20;;;;;;;7.51;100.00;62770.78;5027861;28;20213;-73
2023/03/23 06:11:29;;;;;;;43.65;26.63;;;;;;;7.63;100.00;62785.19;5021872;28;20226;-72
2023/03/23 06:13:56;;;;;;;38.05;23.92;;;;;;;7.86;100.00;62808.94;5025456;28;20246;-72
2023/03/23 06:16:23;;;;;;;42.08;23.30;;;;;;;8.06;100.00;62827.03;5024849;28;20227;-73
2023/03/23 06:18:50;;;;;;;31.30;19.88;;;;;;;8.19;100.00;62845.56;5022564;28;20202;-73
2023/03/23 06:21:18;;;;;;;30.63;19.13;;;;;;;8.30;100.00;62853.88;5016140;28;20226;-73
2023/03/23 06:23:46;;;;;;;35.35;21.33;;;;;;;8.17;100.00;62840.94;5024687;28;20194;-74
2023/03/23 06:26:16;;;;;;;31.45;20.45;;;;;;;8.25;100.00;62846.19;5031423;28;20384;-73
2023/03/23 06:28:44;;;;;;;26.98;17.30;;;;;;;8.49;100.00;62863.88;5032274;28;20376;-72
2023/03/23 06:31:14;;;;;;;29.98;18.80;;;;;;;8.54;100.00;62873.59;5044401;28;20209;-72
2023/03/23 06:33:41;;;;;;;29.00;20.52;;;;;;;8.27;100.00;62845.69;5045656;28;20280;-71
2023/03/23 06:36:11;;;;;;;33.60;20.55;;;;;;;8.13;100.00;62837.34;5032249;28;20246;-73
2023/03/23 06:38:38;;;;;;;32.63;20.88;;;;;;;8.26;100.00;62845.19;5005845;28;20223;-72
2023/03/23 06:41:06;;;;;;;37.80;22.33;;;;;;;8.44;100.00;62868.84;5004961;28;20231;-73
2023/03/23 06:43:33;;;;;;;33.70;21.48;;;;;;;8.26;100.00;62845.19;5007660;28;20245;-72
2023/03/23 06:46:02;;;;;;;37.58;21.27;;;;;;;8.31;100.00;62855.44;5009966;28;20230;-71
2023/03/23 06:48:29;;;;;;;37.75;22.48;;;;;;;8.41;100.00;62862.69;5023441;28;20262;-73
2023/03/23 06:50:56;;;;;;;36.85;22.65;;;;;;;8.26;100.00;62850.28;5027264;28;20199;-73
2023/03/23 06:53:23;;;;;;;37.67;24.00;;;;;;;8.15;100.00;62831.28;5024258;28;20249;-74
2023/03/23 06:55:50;;;;;;;34.30;21.55;;;;;;;8.32;100.00;62853.91;5014683;28;20242;-72
2023/03/23 06:58:17;;;;;;;38.58;23.98;;;;;;;8.52;100.00;62874.06;5005662;28;20270;-72
2023/03/23 07:00:44;;;;;;;36.30;22.88;;;;;;;8.51;100.00;62873.53;5005127;28;20207;-72
2023/03/23 07:03:13;;;;;;;30.75;21.15;;;;;;;8.51;100.00;62870.50;5003853;28;20223;-74
2023/03/23 07:05:39;;;;;;;48.40;22.25;;;;;;;8.50;100.00;62872.53;5022836;28;20270;-73
2023/03/23 07:08:07;;;;;;;29.30;20.88;;;;;;;8.65;100.00;62882.94;5024824;28;20265;-73
2023/03/23 07:10:34;;;;;;;29.67;20.30;;;;;;;8.65;100.00;62885.47;5025227;28;20198;-73
2023/03/23 07:13:01;;;;;;;33.63;20.83;;;;;;;8.54;100.00;62876.66;5021202;28;20219;-74
2023/03/23 07:15:28;;;;;;;34.42;20.27;;;;;;;8.74;100.00;62891.72;5024583;28;20250;-73
2023/03/23 07:17:55;;;;;;;31.88;22.38;;;;;;;8.74;100.00;62899.84;5019991;28;20283;-74
2023/03/23 07:20:24;;;;;;;34.53;20.33;;;;;;;8.80;100.00;62911.13;5009295;28;20207;-73
2023/03/23 07:22:51;;;;;;;33.42;21.42;;;;;;;8.98;100.00;62924.66;5026590;28;20599;-73
2023/03/23 07:25:19;;;;;;;31.42;20.83;;;;;;;9.23;100.00;62947.44;5028905;28;20515;-72
2023/03/23 07:27:47;;;;;;;29.73;19.75;;;;;;;9.32;100.00;62956.75;5017531;28;20257;-73
2023/03/23 07:30:15;;;;;;;31.27;18.65;;;;;;;9.50;100.00;62977.91;5008948;28;20200;-73
2023/03/23 07:32:42;;;;;;;29.02;17.55;;;;;;;9.67;100.00;62992.41;5008288;28;20253;-74
2023/03/23 07:35:10;;;;;;;34.75;18.95;;;;;;;9.71;100.00;62997.06;5009152;28;20488;-73
2023/03/23 07:37:39;;;;;;;30.77;18.77;;;;;;;9.76;100.00;62996.63;5021954;28;20230;-72
2023/03/23 07:40:14;;;;;;;22.67;16.15;;;;;;;9.82;100.00;63007.94;5030405;28;20221;-73
2023/03/23 07:42:42;;;;;;;30.00;17.42;;;;;;;9.73;100.00;62998.63;5029601;28;20218;-75
2023/03/23 07:45:10;;;;;;;25.23;16.08;;;;;;;9.74;100.00;63002.19;5025259;28;20199;-73
2023/03/23 07:47:38;;;;;;;21.98;15.32;;;;;;;9.82;100.00;63007.94;5007622;28;20227;-72
2023/03/23 07:50:07;;;;;;;20.10;14.18;;;;;;;9.97;100.00;63029.06;5008560;28;20204;-76
2023/03/23 07:52:34;;;;;;;25.88;14.82;;;;;;;9.89;100.00;63015.69;5009499;28;20266;-73
2023/03/23 07:55:03;;;;;;;23.88;14.45;;;;;;;9.87;100.00;63018.69;5008635;28;20234;-75
2023/03/23 07:57:29;;;;;;;18.88;14.32;;;;;;;10.01;100.00;63030.13;5010116;28;20231;-75
2023/03/23 07:59:57;;;;;;;26.42;17.48;;;;;;;10.02;100.00;63028.63;5008842;28;20374;-73
2023/03/23 08:02:25;;;;;;;19.90;15.38;;;;;;;10.01;100.00;63032.69;5011119;28;20235;-74
2023/03/23 08:04:53;;;;;;;22.70;16.67;;;;;;;10.13;100.00;63048.16;5006897;28;20203;-73
2023/03/23 08:07:20;;;;;;;19.77;15.10;;;;;;;10.08;100.00;63035.34;5007764;28;20591;-74
2023/03/23 08:09:48;;;;;;;18.67;15.05;;;;;;;10.15;100.00;63040.06;5007843;28;20499;-73
2023/03/23 08:12:17;;;;;;;23.48;15.48;;;;;;;10.33;100.00;63058.69;5009575;28;20525;-74
2023/03/23 08:14:44;;;;;;;24.80;16.13;;;;;;;10.64;100.00;63089.72;5011894;28;20235;-73
2023/03/23 08:17:11;;;;;;;23.08;16.77;;;;;;;10.79;100.00;63113.41;5009190;28;20219;-72
2023/03/23 08:19:38;;;;;;;23.33;16.30;;;;;;;10.91;100.00;63123.28;5008446;28;20226;-72
2023/03/23 08:22:05;;;;;;;22.23;14.88;;;;;;;10.90;100.00;63119.19;5012105;28;20223;-74
2023/03/23 08:24:33;;;;;;;21.83;14.52;;;;;;;10.91;100.00;63120.75;5026939;28;20203;-74
2023/03/23 08:27:00;;;;;;;20.80;14.52;;;;;;;10.99;100.00;63126.47;5007676;28;20535;-73
2023/03/23 08:29:29;;;;;;;22.25;13.98;;;;;;;11.16;100.00;63148.66;5008473;28;20214;-73
2023/03/23 08:31:58;;;;;;;15.50;12.13;;;;;;;11.24;98.91;63157.47;5019099;28;20261;-73
2023/03/23 08:34:25;;;;;;;10.45;8.30;;;;;;;11.26;87.10;63162.09;5027044;28;20238;-74
2023/03/23 08:36:52;;;;;;;11.73;8.32;;;;;;;11.27;81.66;63158.00;5028209;28;20261;-74
2023/03/23 08:39:19;;;;;;;10.18;8.48;;;;;;;11.40;84.21;63174.03;5025306;28;22027;-74
2023/03/23 08:41:47;;;;;;;8.23;7.35;;;;;;;11.65;78.90;63198.91;5006164;28;20266;-73
2023/03/23 08:44:13;;;;;;;10.48;7.13;;;;;;;11.80;76.10;63212.44;5007397;28;20211;-74
2023/03/23 08:46:42;;;;;;;7.93;6.47;;;;;;;11.89;74.51;63221.75;5006676;28;20266;-71
2023/03/23 08:49:09;;;;;;;6.25;5.50;;;;;;;11.82;72.55;63213.97;5012347;28;20215;-73
2023/03/23 08:51:37;;;;;;;6.88;6.10;;;;;;;11.74;70.52;63210.78;5026105;28;20218;-73
2023/03/23 08:54:04;;;;;;;9.15;6.95;;;;;;;11.98;74.62;63233.09;5027957;28;20411;-74
2023/03/23 08:56:31;;;;;;;7.28;6.03;;;;;;;12.20;71.58;63251.31;5025682;28;20229;-73
2023/03/23 08:58:58;;;;;;;8.45;6.15;;;;;;;12.45;68.77;63279.78;5012908;28;20488;-72
2023/03/23 09:01:26;;;;;;;11.27;6.85;;;;;;;12.57;64.88;63296.81;5008938;28;20226;-73
2023/03/23 09:03:55;;;;;;;6.32;5.72;;;;;;;12.53;61.64;63288.06;5006761;28;20203;-74
2023/03/23 09:06:22;;;;;;;5.97;5.03;;;;;;;12.57;60.85;63294.25;5006002;28;20257;-72
2023/03/23 09:08:49;;;;;;;6.72;6.05;;;;;;;12.58;62.29;63292.75;5008450;28;20199;-73
2023/03/23 09:11:16;;;;;;;9.10;6.13;;;;;;;12.33;60.25;63269.91;5006883;28;20207;-75
2023/03/23 09:13:43;;;;;;;6.78;5.63;;;;;;;11.99;63.07;63229.56;5006394;28;20191;-75
2023/03/23 09:16:10;;;;;;;7.38;6.60;;;;;;;11.77;64.52;63211.34;5006445;28;20231;-74
2023/03/23 09:18:37;;;;;;;7.45;6.78;;;;;;;11.71;66.81;63205.13;5008135;28;20271;-73
2023/03/23 09:21:08;;;;;;;7.18;6.05;;;;;;;11.75;65.32;63207.25;5015777;28;20222;-75
2023/03/23 09:23:34;;;;;;;6.47;5.80;;;;;;;11.86;63.46;63218.63;5025189;28;20199;-73
2023/03/23 09:26:02;;;;;;;5.95;5.40;;;;;;;11.94;62.73;63226.41;5026388;28;20245;-74
2023/03/23 09:28:30;;;;;;;7.47;6.68;;;;;;;11.93;62.40;63228.44;5027595;28;20203;-76
2023/03/23 09:30:58;;;;;;;9.00;6.43;;;;;;;12.03;62.36;63235.75;5025627;28;20395;-75
2023/03/23 09:33:25;;;;;;;8.30;5.85;;;;;;;12.25;61.46;63264.16;5025468;28;20199;-74
2023/03/23 09:35:52;;;;;;;6.53;5.72;;;;;;;12.59;62.30;63299.41;5007229;28;20234;-73
2023/03/23 09:38:21;;;;;;;7.75;6.53;;;;;;;12.80;60.33;63320.66;5005478;28;20234;-74
2023/03/23 09:40:50;;;;;;;9.10;6.57;;;;;;;12.92;59.01;63327.47;5005852;28;20209;-73
2023/03/23 09:43:55;;;;;;;10.80;7.18;;;;;;;13.08;58.71;63349.22;5012244;28;20234;-76
2023/03/23 09:46:40;;;;;;;7.65;6.85;;;;;;;13.12;60.81;63351.31;5002994;28;20293;-77
2023/03/23 09:49:13;;;;;;;9.00;7.43;;;;;;;13.36;58.78;63375.69;5005238;28;20203;-73
2023/03/23 09:51:45;;;;;;;8.50;6.60;;;;;;;13.26;58.38;63365.84;5006266;28;20246;-75
2023/03/23 09:54:20;;;;;;;7.75;6.95;;;;;;;13.62;59.90;63403.19;5005108;28;20234;-75
2023/03/23 09:56:48;;;;;;;9.40;7.53;;;;;;;13.61;57.17;63401.66;5005066;28;20219;-74
2023/03/23 09:59:21;;;;;;;8.15;6.38;;;;;;;13.63;57.34;63401.16;5008762;28;20210;-73
2023/03/23 10:01:52;;;;;;;8.50;5.75;;;;;;;13.52;54.04;63390.25;5007340;28;20230;-77
2023/03/23 10:04:29;;;;;;;8.50;7.03;;;;;;;13.52;56.17;63392.81;5005797;28;20191;-73
2023/03/23 10:07:00;;;;;;;9.50;6.53;;;;;;;13.40;55.15;63377.28;5006934;28;20219;-74
2023/03/23 10:09:29;;;;;;;6.75;6.05;;;;;;;13.42;57.10;63384.47;5013701;28;20203;-73
2023/03/23 10:12:06;;;;;;;6.82;6.18;;;;;;;13.56;55.62;63394.41;5024484;28;20227;-73
2023/03/23 10:15:01;;;;;;;6.28;5.70;;;;;;;13.45;57.61;63388.13;5024321;28;20199;-74
2023/03/23 10:17:33;;;;;;;7.80;6.43;;;;;;;13.16;55.69;63347.81;5016942;28;20293;-75
2023/03/23 10:20:17;;;;;;;6.90;6.00;;;;;;;13.13;59.12;63349.28;5026455;28;20202;-73
2023/03/23 10:22:49;;;;;;;6.40;5.80;;;;;;;13.28;58.72;63370.47;5020959;28;20390;-74
2023/03/23 10:25:23;;;;;;;6.18;5.60;;;;;;;13.33;55.47;63375.16;5022802;28;20210;-73
2023/03/23 10:27:55;;;;;;;6.60;5.60;;;;;;;13.66;57.91;63401.72;5010781;28;20234;-74
2023/03/23 10:30:28;;;;;;;7.05;5.88;;;;;;;13.86;55.81;63428.09;5005324;28;20204;-71
2023/03/23 10:33:01;;;;;;;7.93;5.68;;;;;;;13.97;56.39;63435.94;5008751;28;20434;-75
2023/03/23 10:35:33;;;;;;;6.88;5.95;;;;;;;14.04;53.53;63446.28;5010492;28;20225;-74
2023/03/23 10:38:05;;;;;;;6.80;6.22;;;;;;;13.87;53.30;63431.19;5024826;28;20229;-75
2023/03/23 10:40:47;;;;;;;5.47;4.95;;;;;;;13.84;53.18;63423.47;5025418;28;20232;-73
2023/03/23 10:43:15;;;;;;;7.43;6.30;;;;;;;14.04;54.53;63446.28;5024231;28;20218;-73
2023/03/23 10:45:45;;;;;;;6.65;6.00;;;;;;;14.17;56.61;63461.81;5022630;28;20203;-74
2023/03/23 10:48:17;;;;;;;6.28;5.70;;;;;;;14.04;53.83;63451.41;5026344;28;20234;-74
2023/03/23 10:50:47;;;;;;;6.95;6.32;;;;;;;14.09;55.30;63451.47;5025703;28;20199;-73
2023/03/23 10:53:22;;;;;;;7.68;5.72;;;;;;;14.34;56.09;63476.94;5022606;28;20214;-75
2023/03/23 10:55:52;;;;;;;7.07;6.40;;;;;;;14.41;54.72;63481.63;5025308;28;20303;-73
2023/03/23 10:58:25;;;;;;;6.03;5.50;;;;;;;14.29;52.16;63472.25;5031776;28;20207;-74
2023/03/23 11:00:53;;;;;;;5.82;5.20;;;;;;;14.23;54.74;63462.91;5029259;28;20229;-73
2023/03/23 11:03:38;;;;;;;6.13;5.60;;;;;;;14.40;53.00;63481.13;5026136;28;20453;-73
2023/03/23 11:06:07;;;;;;;6.72;6.07;;;;;;;14.53;51.69;63501.78;5028190;28;20256;-74
2023/03/23 11:08:39;;;;;;;6.72;5.63;;;;;;;14.36;50.31;63476.94;5030411;28;20209;-75
2023/03/23 11:11:15;;;;;;;6.85;6.25;;;;;;;14.44;53.01;63487.31;5026009;28;20208;-74
2023/03/23 11:13:45;;;;;;;6.88;6.03;;;;;;;14.51;52.23;63495.09;5027396;28;20510;-73
2023/03/23 11:16:24;;;;;;;5.95;5.43;;;;;;;14.29;52.58;63466.63;5029071;28;20407;-75
2023/03/23 11:18:52;;;;;;;6.88;6.28;;;;;;;13.94;53.08;63435.91;5031236;28;20202;-75
2023/03/23 11:21:21;;;;;;;6.78;5.90;;;;;;;13.88;54.05;63435.31;5026886;28;20210;-74
2023/03/23 11:23:52;;;;;;;6.18;5.65;;;;;;;14.18;53.67;63460.81;5027663;28;20245;-78
2023/03/23 11:26:24;;;;;;;6.60;6.07;;;;;;;14.22;53.39;63459.84;5030534;28;20224;-76
2023/03/23 11:28:54;;;;;;;7.50;6.25;;;;;;;14.35;55.71;63475.94;5028062;28;20195;-75
2023/03/23 11:31:24;;;;;;;7.25;6.53;;;;;;;14.58;52.84;63501.84;5009110;28;20219;-75
2023/03/23 11:33:55;;;;;;;6.43;5.82;;;;;;;14.58;51.54;63499.78;5009792;28;20203;-76
2023/03/23 11:36:30;;;;;;;6.57;5.97;;;;;;;14.51;51.79;63497.66;5007838;28;20245;-77